Nouasseur, Morocco
Current Conditions -  °F | °C
As of 9:00 PM on Thursday 18 Dec 2014 (Local Time) from GMMN Reporting Station
Scattered Clouds Scattered Clouds  
Wind Chill: 57°   Ceiling: Unl
Heat Index: 57°   Visibility: 3mi
Dew Point: 54°   Wind: 5mph
Humidity: 88%   Direction: 30°NNE
Pressure: 30.36"   Gusts: NA
Location:  33.37°N, 7.58°W
Report Text: GMMN 182000Z 03004KT 5000 SCT016 14/12 Q1028 NOSIG
Loading
Personal Weather Stations






























Interactive Weather Map New forecast layout! Learn more

10-Day Weather Forecast

Advertisements
Track Severe Weather on mobile